SASA/SLA METAR and TAF weather

Enter ICAO airport designator
Station Type Date Time Source
SASA METAR 2019/06/26 21:00 UTC NOAA

SASA 262100Z 05008KT CAVOK 14/02 Q1012


Station Type Date Time Source
SASA Decoded METAR 2019/06/26 21:00 UTC NOAA

Salta Aerodrome, Argentina (SASA) 24-51S 065-29W 1221M
Jun 26, 2019 - 05:00 PM EDT / 2019.06.26 2100 UTC
Wind: from the NE (050 degrees) at 9 MPH (8 KT):0
Visibility: greater than 7 mile(s):0
Temperature: 57 F (14 C)
Dew Point: 35 F (2 C)
Relative Humidity: 44%
Pressure (altimeter): 29.88 in. Hg (1012 hPa)
ob: SASA 262100Z 05008KT CAVOK 14/02 Q1012
cycle: 21

Station Type Date Time Source
SASA TAF 2019/06/26 18:09 UTC NOAA

TAF SASA 261700Z 2618/2718 05010KT CAVOK TX18/2718Z TNM02/2710Z
BECMG 2621/2700 02005KT
BECMG 2706/2709 VRB03KT 5000 BR NSC
BECMG 2712/2715 02005KT CAVOK

Example: see airport list